Adventuress — WCX8691 — position and weather

sailwx.info

Track history (hours):
 
Tides and Currents Weather Stations Pressure Air Temp Water Temp Dewpoint Dewpoint Depression Visibility Wind Speed Wind Dir Waves Ship Positions

Adventuress (United States)

Ship's website: http://www.soundexp.org/

Owner: SOUND EXPERIENCE, PORT TOWNSEND, WA. More information available from US FCC via Universal Licensing System and Coast Guard Vessel Documentation Center.

Last reported at 2015-Jul-03 07:33 UTC. Time now 2015-Jul-03 07:50 UTC.
Position N 48°31' W 122°36'.

Type: Passenger vessel. MMSI: 367323180.

Date/timePositionNaut miles runAvg speedWind from/ knotsBaromVisibWave heightAir tempDewpointWater temp
2015-Jul-03 07:33N 48°31' W 122°36'0 0.0
2015-Jul-03 06:33N 48°31' W 122°36'0 0.0
2015-Jul-03 05:33N 48°31' W 122°36'0 0.0
2015-Jul-03 04:33N 48°31' W 122°36'0 0.0
2015-Jul-03 03:33N 48°31' W 122°36'0 0.0
2015-Jul-03 02:33N 48°31' W 122°36'0 0.0
2015-Jul-03 01:33N 48°31' W 122°36'0 0.0
2015-Jul-03 00:33N 48°31' W 122°36'0 0.0
2015-Jul-02 23:33N 48°31' W 122°36'0 0.0
2015-Jul-02 22:33N 48°31' W 122°36'2 1.9
2015-Jul-02 21:33N 48°32' W 122°34'32 6.2
2015-Jul-02 16:22N 48°52' W 123°12'6 7.1
2015-Jul-02 15:32N 48°57' W 123°17'8 7.7
2015-Jul-02 14:32N 49°04' W 123°21'6 6.5
2015-Jul-02 13:33N 49°08' W 123°13'2 0.1
2015-Jul-01 14:33N 49°07' W 123°10'  
2015-Jun-28 22:11N 49°07' W 123°10'2 3.0
2015-Jun-28 21:33N 49°08' W 123°13'5 4.3
2015-Jun-28 20:27N 49°06' W 123°20'3 2.8
2015-Jun-28 19:33N 49°07' W 123°23'6 6.0
2015-Jun-28 18:33N 49°13' W 123°21'8 0.3
2015-Jun-27 19:18N 49°21' W 123°18'2 3.0
2015-Jun-27 18:33N 49°19' W 123°15'3 3.1
2015-Jun-27 17:33N 49°17' W 123°12'0 0.0
2015-Jun-27 16:33N 49°17' W 123°12'0 0.0
2015-Jun-27 15:33N 49°17' W 123°12'0 0.0
2015-Jun-27 14:33N 49°17' W 123°12'0 0.0
2015-Jun-27 13:30N 49°17' W 123°12'0 0.0
2015-Jun-27 12:33N 49°17' W 123°12'0 0.0
2015-Jun-27 11:33N 49°17' W 123°12'0 0.0
2015-Jun-27 10:33N 49°17' W 123°12'0 0.0
2015-Jun-27 09:30N 49°17' W 123°12'0 0.0
2015-Jun-27 08:33N 49°17' W 123°12'0 0.0
2015-Jun-27 07:33N 49°17' W 123°12'0 0.0
2015-Jun-27 06:33N 49°17' W 123°12'0 0.0
2015-Jun-27 05:32N 49°17' W 123°12'0 0.1
2015-Jun-27 04:33N 49°17' W 123°12'0 0.0
2015-Jun-27 03:33N 49°17' W 123°12'0 0.0
2015-Jun-27 02:30N 49°17' W 123°12'0 0.0
2015-Jun-27 01:33N 49°17' W 123°12'3 3.3
2015-Jun-27 00:33N 49°17' W 123°17'5 4.7
2015-Jun-26 23:33N 49°12' W 123°18'4 3.9
2015-Jun-26 22:31N 49°08' W 123°19'2 2.0
2015-Jun-26 21:33N 49°07' W 123°17'4 3.4
2015-Jun-26 20:20N 49°07' W 123°10'0 0.0
2015-Jun-26 19:32N 49°07' W 123°10'0 0.0
2015-Jun-26 18:32N 49°07' W 123°10'0 0.0
2015-Jun-26 17:26N 49°07' W 123°10'0 0.0
2015-Jun-26 16:20N 49°07' W 123°10'0 0.0
2015-Jun-26 15:32N 49°07' W 123°10'0 0.0
2015-Jun-26 14:32N 49°07' W 123°10'0 0.0
2015-Jun-26 13:32N 49°07' W 123°10'0 0.0
2015-Jun-26 12:32N 49°07' W 123°10'0 0.0
2015-Jun-26 11:26N 49°07' W 123°10'0 0.0
2015-Jun-26 10:32N 49°07' W 123°10'0 0.0
2015-Jun-26 09:32N 49°07' W 123°10'0 0.0
2015-Jun-26 08:32N 49°07' W 123°10'0 0.0
2015-Jun-26 07:32N 49°07' W 123°10'0 0.0
2015-Jun-26 06:26N 49°07' W 123°10'0 0.0
2015-Jun-26 05:32N 49°07' W 123°10'0 0.0
2015-Jun-26 04:26N 49°07' W 123°10'0 0.0
2015-Jun-26 03:33N 49°07' W 123°10'0 0.0
2015-Jun-26 02:33N 49°07' W 123°10'0 0.0
2015-Jun-26 01:33N 49°07' W 123°10'0 0.0
2015-Jun-26 00:31N 49°07' W 123°10'0 0.0
2015-Jun-25 23:33N 49°07' W 123°10'1 0.8
2015-Jun-25 22:33N 49°07' W 123°11'39 4.9
2015-Jun-25 14:30N 48°36' W 122°37'5 5.2
2015-Jun-25 13:33N 48°31' W 122°36'1 0.5
2015-Jun-25 12:28N 48°31' W 122°36'0 0.0
2015-Jun-25 11:28N 48°31' W 122°36'0 0.0
2015-Jun-25 10:28N 48°31' W 122°36'0 0.0
2015-Jun-25 09:28N 48°31' W 122°36'0 0.0
2015-Jun-25 08:28N 48°31' W 122°36'0 0.0
2015-Jun-25 07:28N 48°31' W 122°36'0 0.0
2015-Jun-25 06:28N 48°31' W 122°36'0 0.0
2015-Jun-25 05:28N 48°31' W 122°36'0 0.0
2015-Jun-25 04:28N 48°31' W 122°36'0 0.0
2015-Jun-25 03:33N 48°31' W 122°36'0 0.0
2015-Jun-25 02:33N 48°31' W 122°36'0 0.0
2015-Jun-25 01:33N 48°31' W 122°36'0 0.1
2015-Jun-25 00:33N 48°31' W 122°36'0 0.1
2015-Jun-24 23:33N 48°31' W 122°36'0 0.0
2015-Jun-24 22:33N 48°31' W 122°36'1 0.8
2015-Jun-24 21:31N 48°31' W 122°36'0 0.4
2015-Jun-24 20:33N 48°32' W 122°35'10 0.5
2015-Jun-24 01:24N 48°26' W 122°48'  
Track history (hours):
 
Tides and Currents Weather Stations Pressure Air Temp Water Temp Dewpoint Dewpoint Depression Visibility Wind Speed Wind Dir Waves Ship Positions

Adventuress (United States)

Ship's website: http://www.soundexp.org/

Owner: SOUND EXPERIENCE, PORT TOWNSEND, WA. More information available from US FCC via Universal Licensing System and Coast Guard Vessel Documentation Center.

Last reported at 2015-Jul-03 07:33 UTC. Time now 2015-Jul-03 07:50 UTC.
Position N 48°31' W 122°36'.

Type: Passenger vessel. MMSI: 367323180.

Date/timePositionNaut miles runAvg speedWind from/ knotsBaromVisibWave heightAir tempDewpointWater temp
2015-Jul-03 07:33N 48°31' W 122°36'0 0.0
2015-Jul-03 06:33N 48°31' W 122°36'0 0.0
2015-Jul-03 05:33N 48°31' W 122°36'0 0.0
2015-Jul-03 04:33N 48°31' W 122°36'0 0.0
2015-Jul-03 03:33N 48°31' W 122°36'0 0.0
2015-Jul-03 02:33N 48°31' W 122°36'0 0.0
2015-Jul-03 01:33N 48°31' W 122°36'0 0.0
2015-Jul-03 00:33N 48°31' W 122°36'0 0.0
2015-Jul-02 23:33N 48°31' W 122°36'0 0.0
2015-Jul-02 22:33N 48°31' W 122°36'2 1.9
2015-Jul-02 21:33N 48°32' W 122°34'32 6.2
2015-Jul-02 16:22N 48°52' W 123°12'6 7.1
2015-Jul-02 15:32N 48°57' W 123°17'8 7.7
2015-Jul-02 14:32N 49°04' W 123°21'6 6.5
2015-Jul-02 13:33N 49°08' W 123°13'2 0.1
2015-Jul-01 14:33N 49°07' W 123°10'  
2015-Jun-28 22:11N 49°07' W 123°10'2 3.0
2015-Jun-28 21:33N 49°08' W 123°13'5 4.3
2015-Jun-28 20:27N 49°06' W 123°20'3 2.8
2015-Jun-28 19:33N 49°07' W 123°23'6 6.0
2015-Jun-28 18:33N 49°13' W 123°21'8 0.3
2015-Jun-27 19:18N 49°21' W 123°18'2 3.0
2015-Jun-27 18:33N 49°19' W 123°15'3 3.1
2015-Jun-27 17:33N 49°17' W 123°12'0 0.0
2015-Jun-27 16:33N 49°17' W 123°12'0 0.0
2015-Jun-27 15:33N 49°17' W 123°12'0 0.0
2015-Jun-27 14:33N 49°17' W 123°12'0 0.0
2015-Jun-27 13:30N 49°17' W 123°12'0 0.0
2015-Jun-27 12:33N 49°17' W 123°12'0 0.0
2015-Jun-27 11:33N 49°17' W 123°12'0 0.0
2015-Jun-27 10:33N 49°17' W 123°12'0 0.0
2015-Jun-27 09:30N 49°17' W 123°12'0 0.0
2015-Jun-27 08:33N 49°17' W 123°12'0 0.0
2015-Jun-27 07:33N 49°17' W 123°12'0 0.0
2015-Jun-27 06:33N 49°17' W 123°12'0 0.0
2015-Jun-27 05:32N 49°17' W 123°12'0 0.1
2015-Jun-27 04:33N 49°17' W 123°12'0 0.0
2015-Jun-27 03:33N 49°17' W 123°12'0 0.0
2015-Jun-27 02:30N 49°17' W 123°12'0 0.0
2015-Jun-27 01:33N 49°17' W 123°12'3 3.3
2015-Jun-27 00:33N 49°17' W 123°17'5 4.7
2015-Jun-26 23:33N 49°12' W 123°18'4 3.9
2015-Jun-26 22:31N 49°08' W 123°19'2 2.0
2015-Jun-26 21:33N 49°07' W 123°17'4 3.4
2015-Jun-26 20:20N 49°07' W 123°10'0 0.0
2015-Jun-26 19:32N 49°07' W 123°10'0 0.0
2015-Jun-26 18:32N 49°07' W 123°10'0 0.0
2015-Jun-26 17:26N 49°07' W 123°10'0 0.0
2015-Jun-26 16:20N 49°07' W 123°10'0 0.0
2015-Jun-26 15:32N 49°07' W 123°10'0 0.0
2015-Jun-26 14:32N 49°07' W 123°10'0 0.0
2015-Jun-26 13:32N 49°07' W 123°10'0 0.0
2015-Jun-26 12:32N 49°07' W 123°10'0 0.0
2015-Jun-26 11:26N 49°07' W 123°10'0 0.0
2015-Jun-26 10:32N 49°07' W 123°10'0 0.0
2015-Jun-26 09:32N 49°07' W 123°10'0 0.0
2015-Jun-26 08:32N 49°07' W 123°10'0 0.0
2015-Jun-26 07:32N 49°07' W 123°10'0 0.0
2015-Jun-26 06:26N 49°07' W 123°10'0 0.0
2015-Jun-26 05:32N 49°07' W 123°10'0 0.0
2015-Jun-26 04:26N 49°07' W 123°10'0 0.0
2015-Jun-26 03:33N 49°07' W 123°10'0 0.0
2015-Jun-26 02:33N 49°07' W 123°10'0 0.0
2015-Jun-26 01:33N 49°07' W 123°10'0 0.0
2015-Jun-26 00:31N 49°07' W 123°10'0 0.0
2015-Jun-25 23:33N 49°07' W 123°10'1 0.8
2015-Jun-25 22:33N 49°07' W 123°11'39 4.9
2015-Jun-25 14:30N 48°36' W 122°37'5 5.2
2015-Jun-25 13:33N 48°31' W 122°36'1 0.5
2015-Jun-25 12:28N 48°31' W 122°36'0 0.0
2015-Jun-25 11:28N 48°31' W 122°36'0 0.0
2015-Jun-25 10:28N 48°31' W 122°36'0 0.0
2015-Jun-25 09:28N 48°31' W 122°36'0 0.0
2015-Jun-25 08:28N 48°31' W 122°36'0 0.0
2015-Jun-25 07:28N 48°31' W 122°36'0 0.0
2015-Jun-25 06:28N 48°31' W 122°36'0 0.0
2015-Jun-25 05:28N 48°31' W 122°36'0 0.0
2015-Jun-25 04:28N 48°31' W 122°36'0 0.0
2015-Jun-25 03:33N 48°31' W 122°36'0 0.0
2015-Jun-25 02:33N 48°31' W 122°36'0 0.0
2015-Jun-25 01:33N 48°31' W 122°36'0 0.1
2015-Jun-25 00:33N 48°31' W 122°36'0 0.1
2015-Jun-24 23:33N 48°31' W 122°36'0 0.0
2015-Jun-24 22:33N 48°31' W 122°36'1 0.8
2015-Jun-24 21:31N 48°31' W 122°36'0 0.4
2015-Jun-24 20:33N 48°32' W 122°35'10 0.5
2015-Jun-24 01:24N 48°26' W 122°48'  

Dump ship's entire track history